map of EPL home
EPL - Airport
Location
City:  Épinal, Lorraine, France
Name:Mirecourt
ICAO:LFSG
IATA:EPL

Details
Type:Airport (Aerodrome, Airfield)
Use:Public/Civil
Latitude:48°19'30"N (48.325006)
Longitude:6°04'00"E (6.066742)
Elevation:1084 ft (330 m)
Variation:2.02°E (WMM2015v2 magnetic declination)
0.16° annual change
Runways:1
Longest:8858 × 148 ft (2700 × 45 m)

Time
Time Zone:UTC+1 (DST+2)
Local Time:

Weather
METAR:LFSG 041400Z AUTO 14007KT CAVOK 04/M05 Q1026

Related Locations
Nearby:
Farthest:CHT: 12097 mi / 19468 km
Waitangi [Tuuta], CIT, NZ

Find:

   beyond  
but within

Other Information
Maps:
NOTAMs:
Links:
Sources:

  
  • flag of France
  • flag of Lorraine
  

Sectional Chart

Flight Planning
at skyvector.com

Satellite Image

Google Maps Satellite view

 

Copyright © 2004-2019 Karl L. Swartz. All rights reserved.
The Great Circle Mapper name and logo are trademarks of the Great Circle Mapper.
All other trademarks mentioned herein belong to their respective owners.
Please see credits for attibutions and further copyright information.

  Follow gcmap on Facebook Follow gcmap on Twitter GCmap on LinkedIn

hCard Microformat

Geo Microformat